Terminal Aerodrome Forecast
Issued by NWS

Home | Current Version | Previous Version | Text Only | Print | Product List | Glossary On
Versions: 1 2 3 4 5 6 7 8 9 10 11 12 13 14 15 16 17 18 19 20
600
FTUS44 KLIX 252327
TAFMCB
TAF
KMCB 252327Z 2600/2624 18005KT P6SM SKC
     FM260700 19004KT 3SM BR BKN015
     FM261100 VRB03KT 1/2SM FG VV003
     FM261400 21005KT P6SM BKN008
     FM261530 21006KT P6SM BKN050
     FM261800 21007KT P6SM SCT150=

USA.gov is the U.S. government's official web portal to all federal, state and local government web resources and services.